sensor_id;sensor_type;location;lat;lon;timestamp;temperature;humidity
82788;DHT22;72529;51.786;4.662;2024-01-11T00:01:18;-0.93;60.97
82788;DHT22;72529;51.786;4.662;2024-01-11T00:03:43;-0.96;61.04
82788;DHT22;72529;51.786;4.662;2024-01-11T00:06:09;-0.99;61.41
82788;DHT22;72529;51.786;4.662;2024-01-11T00:08:34;-0.95;61.42
82788;DHT22;72529;51.786;4.662;2024-01-11T00:11:00;-0.93;61.35
82788;DHT22;72529;51.786;4.662;2024-01-11T00:13:25;-0.99;61.30
82788;DHT22;72529;51.786;4.662;2024-01-11T00:15:51;-1.03;61.36
82788;DHT22;72529;51.786;4.662;2024-01-11T00:18:17;-1.03;61.84
82788;DHT22;72529;51.786;4.662;2024-01-11T00:20:42;-1.00;61.97
82788;DHT22;72529;51.786;4.662;2024-01-11T00:23:08;-0.99;61.36
82788;DHT22;72529;51.786;4.662;2024-01-11T00:25:34;-1.02;61.56
82788;DHT22;72529;51.786;4.662;2024-01-11T00:27:59;-0.96;61.40
82788;DHT22;72529;51.786;4.662;2024-01-11T00:30:25;-1.05;61.62
82788;DHT22;72529;51.786;4.662;2024-01-11T00:32:50;-1.05;61.54
82788;DHT22;72529;51.786;4.662;2024-01-11T00:35:15;-1.05;61.77
82788;DHT22;72529;51.786;4.662;2024-01-11T00:37:41;-1.06;61.90
82788;DHT22;72529;51.786;4.662;2024-01-11T00:40:07;-1.12;62.21
82788;DHT22;72529;51.786;4.662;2024-01-11T00:42:32;-1.17;61.84
82788;DHT22;72529;51.786;4.662;2024-01-11T00:45:00;-1.17;62.23
82788;DHT22;72529;51.786;4.662;2024-01-11T00:47:25;-1.13;62.38
82788;DHT22;72529;51.786;4.662;2024-01-11T00:49:50;-1.08;62.30
82788;DHT22;72529;51.786;4.662;2024-01-11T00:52:16;-1.10;62.35
82788;DHT22;72529;51.786;4.662;2024-01-11T00:54:41;-1.17;61.84
82788;DHT22;72529;51.786;4.662;2024-01-11T00:57:07;-1.19;61.88
82788;DHT22;72529;51.786;4.662;2024-01-11T00:59:32;-1.09;61.87
82788;DHT22;72529;51.786;4.662;2024-01-11T01:01:57;-1.22;62.14
82788;DHT22;72529;51.786;4.662;2024-01-11T01:04:23;-1.23;62.06
82788;DHT22;72529;51.786;4.662;2024-01-11T01:06:48;-1.20;62.09
82788;DHT22;72529;51.786;4.662;2024-01-11T01:09:14;-1.23;61.86
82788;DHT22;72529;51.786;4.662;2024-01-11T01:11:40;-1.20;62.01
82788;DHT22;72529;51.786;4.662;2024-01-11T01:14:05;-1.19;62.23
82788;DHT22;72529;51.786;4.662;2024-01-11T01:16:31;-1.15;62.42
82788;DHT22;72529;51.786;4.662;2024-01-11T01:18:56;-1.17;62.22
82788;DHT22;72529;51.786;4.662;2024-01-11T01:21:22;-1.23;62.12
82788;DHT22;72529;51.786;4.662;2024-01-11T01:23:47;-1.25;62.36
82788;DHT22;72529;51.786;4.662;2024-01-11T01:26:13;-1.22;62.56
82788;DHT22;72529;51.786;4.662;2024-01-11T01:28:38;-1.28;62.60
82788;DHT22;72529;51.786;4.662;2024-01-11T01:31:05;-1.22;62.43
82788;DHT22;72529;51.786;4.662;2024-01-11T01:33:30;-1.30;62.40
82788;DHT22;72529;51.786;4.662;2024-01-11T01:35:56;-1.33;62.46
82788;DHT22;72529;51.786;4.662;2024-01-11T01:38:21;-1.35;62.70
82788;DHT22;72529;51.786;4.662;2024-01-11T01:40:47;-1.32;62.76
82788;DHT22;72529;51.786;4.662;2024-01-11T01:43:12;-1.26;62.70
82788;DHT22;72529;51.786;4.662;2024-01-11T01:45:38;-1.22;63.04
82788;DHT22;72529;51.786;4.662;2024-01-11T01:48:04;-1.29;62.83
82788;DHT22;72529;51.786;4.662;2024-01-11T01:50:31;-1.20;63.23
82788;DHT22;72529;51.786;4.662;2024-01-11T01:52:57;-1.23;63.16
82788;DHT22;72529;51.786;4.662;2024-01-11T01:55:25;-1.22;63.15
82788;DHT22;72529;51.786;4.662;2024-01-11T01:57:51;-1.29;63.37
82788;DHT22;72529;51.786;4.662;2024-01-11T02:00:18;-1.32;63.39
82788;DHT22;72529;51.786;4.662;2024-01-11T02:02:44;-1.35;63.65
82788;DHT22;72529;51.786;4.662;2024-01-11T02:05:14;-1.36;63.57
82788;DHT22;72529;51.786;4.662;2024-01-11T02:07:40;-1.46;63.89
82788;DHT22;72529;51.786;4.662;2024-01-11T02:10:07;-1.38;63.90
82788;DHT22;72529;51.786;4.662;2024-01-11T02:12:35;-1.39;63.74
82788;DHT22;72529;51.786;4.662;2024-01-11T02:15:01;-1.39;63.92
82788;DHT22;72529;51.786;4.662;2024-01-11T02:17:29;-1.39;64.00
82788;DHT22;72529;51.786;4.662;2024-01-11T02:19:54;-1.56;64.09
82788;DHT22;72529;51.786;4.662;2024-01-11T02:22:35;-1.52;64.31
82788;DHT22;72529;51.786;4.662;2024-01-11T02:25:01;-1.46;64.20
82788;DHT22;72529;51.786;4.662;2024-01-11T02:27:27;-1.49;64.46
82788;DHT22;72529;51.786;4.662;2024-01-11T02:29:53;-1.42;64.51
82788;DHT22;72529;51.786;4.662;2024-01-11T02:32:19;-1.49;64.35
82788;DHT22;72529;51.786;4.662;2024-01-11T02:34:46;-1.50;64.50
82788;DHT22;72529;51.786;4.662;2024-01-11T02:37:12;-1.50;64.40
82788;DHT22;72529;51.786;4.662;2024-01-11T02:39:39;-1.53;64.27
82788;DHT22;72529;51.786;4.662;2024-01-11T02:42:04;-1.46;64.29
82788;DHT22;72529;51.786;4.662;2024-01-11T02:44:30;-1.54;64.41
82788;DHT22;72529;51.786;4.662;2024-01-11T02:46:55;-1.53;64.40
82788;DHT22;72529;51.786;4.662;2024-01-11T02:49:21;-1.52;64.44
82788;DHT22;72529;51.786;4.662;2024-01-11T02:51:46;-1.54;64.50
82788;DHT22;72529;51.786;4.662;2024-01-11T02:54:11;-1.54;64.48
82788;DHT22;72529;51.786;4.662;2024-01-11T02:56:37;-1.64;64.51
82788;DHT22;72529;51.786;4.662;2024-01-11T02:59:02;-1.56;64.53
82788;DHT22;72529;51.786;4.662;2024-01-11T03:01:28;-1.63;64.47
82788;DHT22;72529;51.786;4.662;2024-01-11T03:03:54;-1.63;64.62
82788;DHT22;72529;51.786;4.662;2024-01-11T03:06:20;-1.60;64.79
82788;DHT22;72529;51.786;4.662;2024-01-11T03:08:48;-1.64;64.75
82788;DHT22;72529;51.786;4.662;2024-01-11T03:11:14;-1.67;65.00
82788;DHT22;72529;51.786;4.662;2024-01-11T03:13:39;-1.67;65.10
82788;DHT22;72529;51.786;4.662;2024-01-11T03:16:05;-1.64;65.11
82788;DHT22;72529;51.786;4.662;2024-01-11T03:18:30;-1.68;65.26
82788;DHT22;72529;51.786;4.662;2024-01-11T03:20:56;-1.71;65.22
82788;DHT22;72529;51.786;4.662;2024-01-11T03:23:22;-1.70;65.32
82788;DHT22;72529;51.786;4.662;2024-01-11T03:25:47;-1.71;65.16
82788;DHT22;72529;51.786;4.662;2024-01-11T03:28:13;-1.78;65.42
82788;DHT22;72529;51.786;4.662;2024-01-11T03:30:38;-1.75;65.48
82788;DHT22;72529;51.786;4.662;2024-01-11T03:33:04;-1.77;65.66
82788;DHT22;72529;51.786;4.662;2024-01-11T03:35:29;-1.80;65.58
82788;DHT22;72529;51.786;4.662;2024-01-11T03:37:55;-1.78;65.68
82788;DHT22;72529;51.786;4.662;2024-01-11T03:40:20;-1.87;66.05
82788;DHT22;72529;51.786;4.662;2024-01-11T03:42:45;-1.90;65.77
82788;DHT22;72529;51.786;4.662;2024-01-11T03:45:11;-1.88;65.87
82788;DHT22;72529;51.786;4.662;2024-01-11T03:47:36;-1.91;65.88
82788;DHT22;72529;51.786;4.662;2024-01-11T03:50:02;-1.94;65.92
82788;DHT22;72529;51.786;4.662;2024-01-11T03:52:29;-1.91;65.95
82788;DHT22;72529;51.786;4.662;2024-01-11T03:54:54;-1.88;66.02
82788;DHT22;72529;51.786;4.662;2024-01-11T03:57:20;-1.90;66.26
82788;DHT22;72529;51.786;4.662;2024-01-11T03:59:45;-1.90;66.32
82788;DHT22;72529;51.786;4.662;2024-01-11T04:02:11;-1.91;66.19
82788;DHT22;72529;51.786;4.662;2024-01-11T04:04:36;-1.90;66.13
82788;DHT22;72529;51.786;4.662;2024-01-11T04:07:01;-1.93;66.23
82788;DHT22;72529;51.786;4.662;2024-01-11T04:09:27;-1.93;66.32
82788;DHT22;72529;51.786;4.662;2024-01-11T04:11:52;-1.97;66.39
82788;DHT22;72529;51.786;4.662;2024-01-11T04:14:18;-1.94;66.40
82788;DHT22;72529;51.786;4.662;2024-01-11T04:16:44;-1.90;66.48
82788;DHT22;72529;51.786;4.662;2024-01-11T04:19:10;-1.98;66.90
82788;DHT22;72529;51.786;4.662;2024-01-11T04:21:35;-1.99;66.61
82788;DHT22;72529;51.786;4.662;2024-01-11T04:24:04;-2.09;66.79
82788;DHT22;72529;51.786;4.662;2024-01-11T04:26:29;-2.05;66.99
82788;DHT22;72529;51.786;4.662;2024-01-11T04:28:55;-2.02;67.22
82788;DHT22;72529;51.786;4.662;2024-01-11T04:31:22;-2.05;67.60
82788;DHT22;72529;51.786;4.662;2024-01-11T04:33:47;-2.05;67.30
82788;DHT22;72529;51.786;4.662;2024-01-11T04:36:13;-2.14;67.21
82788;DHT22;72529;51.786;4.662;2024-01-11T04:38:39;-2.17;67.62
82788;DHT22;72529;51.786;4.662;2024-01-11T04:41:11;-2.11;67.69
82788;DHT22;72529;51.786;4.662;2024-01-11T04:43:42;-2.15;67.93
82788;DHT22;72529;51.786;4.662;2024-01-11T04:46:21;-2.14;67.79
82788;DHT22;72529;51.786;4.662;2024-01-11T04:48:48;-2.15;68.04
82788;DHT22;72529;51.786;4.662;2024-01-11T04:51:18;-2.09;67.81
82788;DHT22;72529;51.786;4.662;2024-01-11T04:53:44;-2.11;67.99
82788;DHT22;72529;51.786;4.662;2024-01-11T04:56:12;-2.17;67.94
82788;DHT22;72529;51.786;4.662;2024-01-11T04:58:40;-2.17;67.99
82788;DHT22;72529;51.786;4.662;2024-01-11T05:01:06;-2.17;68.25
82788;DHT22;72529;51.786;4.662;2024-01-11T05:03:32;-2.15;68.29
82788;DHT22;72529;51.786;4.662;2024-01-11T05:05:58;-2.22;68.51
82788;DHT22;72529;51.786;4.662;2024-01-11T05:08:25;-2.31;68.38
82788;DHT22;72529;51.786;4.662;2024-01-11T05:10:51;-2.29;68.51
82788;DHT22;72529;51.786;4.662;2024-01-11T05:13:17;-2.28;69.00
82788;DHT22;72529;51.786;4.662;2024-01-11T05:15:43;-2.29;69.00
82788;DHT22;72529;51.786;4.662;2024-01-11T05:18:08;-2.32;68.89
82788;DHT22;72529;51.786;4.662;2024-01-11T05:20:33;-2.48;69.30
82788;DHT22;72529;51.786;4.662;2024-01-11T05:22:59;-2.44;69.66
82788;DHT22;72529;51.786;4.662;2024-01-11T05:25:26;-2.37;69.72
82788;DHT22;72529;51.786;4.662;2024-01-11T05:27:52;-2.42;69.70
82788;DHT22;72529;51.786;4.662;2024-01-11T05:30:17;-2.49;70.17
82788;DHT22;72529;51.786;4.662;2024-01-11T05:32:43;-2.49;70.56
82788;DHT22;72529;51.786;4.662;2024-01-11T05:35:08;-2.49;70.70
82788;DHT22;72529;51.786;4.662;2024-01-11T05:37:36;-2.49;70.80
82788;DHT22;72529;51.786;4.662;2024-01-11T05:40:01;-2.52;70.90
82788;DHT22;72529;51.786;4.662;2024-01-11T05:42:27;-2.41;70.86
82788;DHT22;72529;51.786;4.662;2024-01-11T05:44:53;-2.45;70.80
82788;DHT22;72529;51.786;4.662;2024-01-11T05:47:18;-2.50;70.71
82788;DHT22;72529;51.786;4.662;2024-01-11T05:49:44;-2.56;70.81
82788;DHT22;72529;51.786;4.662;2024-01-11T05:52:10;-2.52;71.07
82788;DHT22;72529;51.786;4.662;2024-01-11T05:54:35;-2.55;70.99
82788;DHT22;72529;51.786;4.662;2024-01-11T05:57:01;-2.45;70.97
82788;DHT22;72529;51.786;4.662;2024-01-11T05:59:26;-2.41;70.70
82788;DHT22;72529;51.786;4.662;2024-01-11T06:01:52;-2.35;70.54
82788;DHT22;72529;51.786;4.662;2024-01-11T06:04:17;-2.32;70.66
82788;DHT22;72529;51.786;4.662;2024-01-11T06:06:43;-2.31;70.56
82788;DHT22;72529;51.786;4.662;2024-01-11T06:09:08;-2.24;70.39
82788;DHT22;72529;51.786;4.662;2024-01-11T06:11:35;-2.27;70.27
82788;DHT22;72529;51.786;4.662;2024-01-11T06:14:00;-2.29;70.15
82788;DHT22;72529;51.786;4.662;2024-01-11T06:16:26;-2.28;70.53
82788;DHT22;72529;51.786;4.662;2024-01-11T06:18:52;-2.37;70.49
82788;DHT22;72529;51.786;4.662;2024-01-11T06:21:17;-2.38;70.42
82788;DHT22;72529;51.786;4.662;2024-01-11T06:23:43;-2.28;70.57
82788;DHT22;72529;51.786;4.662;2024-01-11T06:26:09;-2.31;70.63
82788;DHT22;72529;51.786;4.662;2024-01-11T06:28:34;-2.35;70.51
82788;DHT22;72529;51.786;4.662;2024-01-11T06:31:00;-2.35;70.40
82788;DHT22;72529;51.786;4.662;2024-01-11T06:33:25;-2.37;70.58
82788;DHT22;72529;51.786;4.662;2024-01-11T06:35:50;-2.34;70.58
82788;DHT22;72529;51.786;4.662;2024-01-11T06:38:16;-2.35;70.46
82788;DHT22;72529;51.786;4.662;2024-01-11T06:40:41;-2.45;70.45
82788;DHT22;72529;51.786;4.662;2024-01-11T06:43:07;-2.39;70.57
82788;DHT22;72529;51.786;4.662;2024-01-11T06:45:33;-2.34;70.58
82788;DHT22;72529;51.786;4.662;2024-01-11T06:47:58;-2.37;70.36
82788;DHT22;72529;51.786;4.662;2024-01-11T06:50:24;-2.41;70.47
82788;DHT22;72529;51.786;4.662;2024-01-11T06:52:49;-2.38;70.48
82788;DHT22;72529;51.786;4.662;2024-01-11T06:55:15;-2.39;70.42
82788;DHT22;72529;51.786;4.662;2024-01-11T06:57:40;-2.42;70.66
82788;DHT22;72529;51.786;4.662;2024-01-11T07:00:06;-2.42;70.66
82788;DHT22;72529;51.786;4.662;2024-01-11T07:02:33;-2.32;70.55
82788;DHT22;72529;51.786;4.662;2024-01-11T07:04:58;-2.39;71.01
82788;DHT22;72529;51.786;4.662;2024-01-11T07:07:23;-2.37;71.29
82788;DHT22;72529;51.786;4.662;2024-01-11T07:09:49;-2.34;71.04
82788;DHT22;72529;51.786;4.662;2024-01-11T07:12:14;-2.34;71.11
82788;DHT22;72529;51.786;4.662;2024-01-11T07:14:40;-2.41;71.26
82788;DHT22;72529;51.786;4.662;2024-01-11T07:17:05;-2.37;71.25
82788;DHT22;72529;51.786;4.662;2024-01-11T07:19:31;-2.37;71.35
82788;DHT22;72529;51.786;4.662;2024-01-11T07:21:56;-2.41;71.59
82788;DHT22;72529;51.786;4.662;2024-01-11T07:24:22;-2.42;71.67
82788;DHT22;72529;51.786;4.662;2024-01-11T07:26:47;-2.45;72.14
82788;DHT22;72529;51.786;4.662;2024-01-11T07:29:14;-2.50;72.09
82788;DHT22;72529;51.786;4.662;2024-01-11T07:31:39;-2.37;71.99
82788;DHT22;72529;51.786;4.662;2024-01-11T07:34:04;-2.32;71.93
82788;DHT22;72529;51.786;4.662;2024-01-11T07:36:30;-2.39;71.76
82788;DHT22;72529;51.786;4.662;2024-01-11T07:38:56;-2.32;71.89
82788;DHT22;72529;51.786;4.662;2024-01-11T07:41:21;-2.37;71.89
82788;DHT22;72529;51.786;4.662;2024-01-11T07:43:47;-2.37;72.02
82788;DHT22;72529;51.786;4.662;2024-01-11T07:46:13;-2.35;72.20
82788;DHT22;72529;51.786;4.662;2024-01-11T07:48:38;-2.32;71.89
82788;DHT22;72529;51.786;4.662;2024-01-11T07:51:04;-2.39;71.95
82788;DHT22;72529;51.786;4.662;2024-01-11T07:53:30;-2.41;71.92
82788;DHT22;72529;51.786;4.662;2024-01-11T07:55:57;-2.35;72.17
82788;DHT22;72529;51.786;4.662;2024-01-11T07:58:23;-2.31;72.24
82788;DHT22;72529;51.786;4.662;2024-01-11T08:00:48;-2.34;72.03
82788;DHT22;72529;51.786;4.662;2024-01-11T08:03:14;-2.21;71.66
82788;DHT22;72529;51.786;4.662;2024-01-11T08:05:40;-2.28;71.61
82788;DHT22;72529;51.786;4.662;2024-01-11T08:08:05;-2.25;71.62
82788;DHT22;72529;51.786;4.662;2024-01-11T08:10:31;-2.21;71.53
82788;DHT22;72529;51.786;4.662;2024-01-11T08:12:56;-2.14;71.59
82788;DHT22;72529;51.786;4.662;2024-01-11T08:15:22;-2.14;71.68
82788;DHT22;72529;51.786;4.662;2024-01-11T08:17:47;-2.19;71.66
82788;DHT22;72529;51.786;4.662;2024-01-11T08:20:13;-2.18;71.80
82788;DHT22;72529;51.786;4.662;2024-01-11T08:22:40;-2.12;71.87
82788;DHT22;72529;51.786;4.662;2024-01-11T08:25:06;-2.02;71.62
82788;DHT22;72529;51.786;4.662;2024-01-11T08:27:32;-1.97;71.74
82788;DHT22;72529;51.786;4.662;2024-01-11T08:29:58;-2.01;71.46
82788;DHT22;72529;51.786;4.662;2024-01-11T08:32:25;-1.90;71.12
82788;DHT22;72529;51.786;4.662;2024-01-11T08:34:50;-1.88;71.09
82788;DHT22;72529;51.786;4.662;2024-01-11T08:37:16;-1.88;71.07
82788;DHT22;72529;51.786;4.662;2024-01-11T08:39:41;-1.81;71.16
82788;DHT22;72529;51.786;4.662;2024-01-11T08:42:07;-1.88;71.20
82788;DHT22;72529;51.786;4.662;2024-01-11T08:44:33;-1.91;71.25
82788;DHT22;72529;51.786;4.662;2024-01-11T08:46:58;-1.84;71.57
82788;DHT22;72529;51.786;4.662;2024-01-11T08:49:25;-1.71;71.06
82788;DHT22;72529;51.786;4.662;2024-01-11T08:51:50;-1.67;70.80
82788;DHT22;72529;51.786;4.662;2024-01-11T08:54:16;-1.63;70.63
82788;DHT22;72529;51.786;4.662;2024-01-11T08:56:42;-1.60;70.81
82788;DHT22;72529;51.786;4.662;2024-01-11T08:59:08;-1.49;70.41
82788;DHT22;72529;51.786;4.662;2024-01-11T09:01:36;-1.54;70.07
82788;DHT22;72529;51.786;4.662;2024-01-11T09:04:02;-1.47;70.08
82788;DHT22;72529;51.786;4.662;2024-01-11T09:06:29;-1.46;70.02
82788;DHT22;72529;51.786;4.662;2024-01-11T09:08:54;-1.42;70.26
82788;DHT22;72529;51.786;4.662;2024-01-11T09:11:19;-1.30;70.09
82788;DHT22;72529;51.786;4.662;2024-01-11T09:13:45;-1.26;69.84
82788;DHT22;72529;51.786;4.662;2024-01-11T09:16:15;-1.06;68.86
82788;DHT22;72529;51.786;4.662;2024-01-11T09:18:40;-1.03;68.99
82788;DHT22;72529;51.786;4.662;2024-01-11T09:21:06;-1.12;69.07
82788;DHT22;72529;51.786;4.662;2024-01-11T09:23:31;-1.08;69.39
82788;DHT22;72529;51.786;4.662;2024-01-11T09:25:57;-0.99;68.95
82788;DHT22;72529;51.786;4.662;2024-01-11T09:28:22;-0.98;68.36
82788;DHT22;72529;51.786;4.662;2024-01-11T09:30:47;-0.88;68.47
82788;DHT22;72529;51.786;4.662;2024-01-11T09:33:13;-0.77;68.20
82788;DHT22;72529;51.786;4.662;2024-01-11T09:35:38;-0.65;67.56
82788;DHT22;72529;51.786;4.662;2024-01-11T09:38:04;-0.67;67.47
82788;DHT22;72529;51.786;4.662;2024-01-11T09:40:30;-0.51;67.47
82788;DHT22;72529;51.786;4.662;2024-01-11T09:42:56;-0.42;67.09
82788;DHT22;72529;51.786;4.662;2024-01-11T09:45:22;-0.31;66.78
82788;DHT22;72529;51.786;4.662;2024-01-11T09:47:49;-0.30;66.39
82788;DHT22;72529;51.786;4.662;2024-01-11T09:50:16;-0.37;66.59
82788;DHT22;72529;51.786;4.662;2024-01-11T09:52:47;-0.26;66.40
82788;DHT22;72529;51.786;4.662;2024-01-11T09:55:18;-0.17;66.36
82788;DHT22;72529;51.786;4.662;2024-01-11T09:57:45;-0.11;66.25
82788;DHT22;72529;51.786;4.662;2024-01-11T10:00:18;-0.07;65.82
82788;DHT22;72529;51.786;4.662;2024-01-11T10:02:47;0.07;65.59
82788;DHT22;72529;51.786;4.662;2024-01-11T10:05:13;0.29;64.92
82788;DHT22;72529;51.786;4.662;2024-01-11T10:07:41;0.25;64.53
82788;DHT22;72529;51.786;4.662;2024-01-11T10:10:07;0.31;64.39
82788;DHT22;72529;51.786;4.662;2024-01-11T10:12:37;0.45;63.79
82788;DHT22;72529;51.786;4.662;2024-01-11T10:15:10;0.61;64.45
82788;DHT22;72529;51.786;4.662;2024-01-11T10:20:08;0.82;64.83
82788;DHT22;72529;51.786;4.662;2024-01-11T10:22:36;0.81;64.88
82788;DHT22;72529;51.786;4.662;2024-01-11T10:25:09;0.93;65.02
82788;DHT22;72529;51.786;4.662;2024-01-11T10:27:37;1.12;65.06
82788;DHT22;72529;51.786;4.662;2024-01-11T10:30:02;1.20;64.04
82788;DHT22;72529;51.786;4.662;2024-01-11T10:32:28;1.30;63.67
82788;DHT22;72529;51.786;4.662;2024-01-11T10:34:54;1.32;62.91
82788;DHT22;72529;51.786;4.662;2024-01-11T10:37:21;1.39;62.96
82788;DHT22;72529;51.786;4.662;2024-01-11T10:39:48;1.53;62.21
82788;DHT22;72529;51.786;4.662;2024-01-11T10:42:20;1.51;62.23
82788;DHT22;72529;51.786;4.662;2024-01-11T10:44:55;1.51;62.65
82788;DHT22;72529;51.786;4.662;2024-01-11T10:47:24;1.73;62.70
82788;DHT22;72529;51.786;4.662;2024-01-11T10:49:52;1.74;62.32
82788;DHT22;72529;51.786;4.662;2024-01-11T10:52:23;1.81;62.68
82788;DHT22;72529;51.786;4.662;2024-01-11T10:54:54;2.01;63.18
82788;DHT22;72529;51.786;4.662;2024-01-11T10:57:22;1.98;63.24
82788;DHT22;72529;51.786;4.662;2024-01-11T10:59:50;1.98;64.39
82788;DHT22;72529;51.786;4.662;2024-01-11T11:02:17;1.97;65.39
82788;DHT22;72529;51.786;4.662;2024-01-11T11:04:44;2.02;66.34
82788;DHT22;72529;51.786;4.662;2024-01-11T11:07:11;2.12;67.81
82788;DHT22;72529;51.786;4.662;2024-01-11T11:09:38;2.30;68.49
82788;DHT22;72529;51.786;4.662;2024-01-11T11:12:10;2.30;69.97
82788;DHT22;72529;51.786;4.662;2024-01-11T11:14:36;2.28;71.06
82788;DHT22;72529;51.786;4.662;2024-01-11T11:17:05;2.21;71.93
82788;DHT22;72529;51.786;4.662;2024-01-11T11:19:31;2.14;72.70
82788;DHT22;72529;51.786;4.662;2024-01-11T11:21:56;1.99;73.38
82788;DHT22;72529;51.786;4.662;2024-01-11T11:24:22;1.94;73.83
82788;DHT22;72529;51.786;4.662;2024-01-11T11:26:47;1.97;73.76
82788;DHT22;72529;51.786;4.662;2024-01-11T11:29:15;1.91;74.01
82788;DHT22;72529;51.786;4.662;2024-01-11T11:31:45;1.94;74.16
82788;DHT22;72529;51.786;4.662;2024-01-11T11:34:19;1.94;74.40
82788;DHT22;72529;51.786;4.662;2024-01-11T11:36:50;1.84;74.67
82788;DHT22;72529;51.786;4.662;2024-01-11T11:39:20;1.73;75.23
82788;DHT22;72529;51.786;4.662;2024-01-11T11:41:47;1.79;75.41
82788;DHT22;72529;51.786;4.662;2024-01-11T11:44:15;1.88;75.65
82788;DHT22;72529;51.786;4.662;2024-01-11T11:46:41;1.87;75.53
82788;DHT22;72529;51.786;4.662;2024-01-11T11:49:07;2.04;75.19
82788;DHT22;72529;51.786;4.662;2024-01-11T11:51:32;2.12;74.90
82788;DHT22;72529;51.786;4.662;2024-01-11T11:53:58;2.15;74.87
82788;DHT22;72529;51.786;4.662;2024-01-11T11:56:24;2.15;74.83
82788;DHT22;72529;51.786;4.662;2024-01-11T11:58:50;2.26;74.73
82788;DHT22;72529;51.786;4.662;2024-01-11T12:01:18;2.22;74.83
82788;DHT22;72529;51.786;4.662;2024-01-11T12:03:45;2.32;74.52
82788;DHT22;72529;51.786;4.662;2024-01-11T12:06:19;2.32;74.44
82788;DHT22;72529;51.786;4.662;2024-01-11T12:08:46;2.35;74.63
82788;DHT22;72529;51.786;4.662;2024-01-11T12:11:20;2.28;74.71
82788;DHT22;72529;51.786;4.662;2024-01-11T12:13:47;2.40;74.56
82788;DHT22;72529;51.786;4.662;2024-01-11T12:16:13;2.29;74.85
82788;DHT22;72529;51.786;4.662;2024-01-11T12:18:39;2.40;74.51
82788;DHT22;72529;51.786;4.662;2024-01-11T12:21:05;2.43;74.52
82788;DHT22;72529;51.786;4.662;2024-01-11T12:23:32;2.35;74.86
82788;DHT22;72529;51.786;4.662;2024-01-11T12:26:03;2.39;74.92
82788;DHT22;72529;51.786;4.662;2024-01-11T12:28:31;2.54;74.44
82788;DHT22;72529;51.786;4.662;2024-01-11T12:30:57;2.57;74.27
82788;DHT22;72529;51.786;4.662;2024-01-11T12:33:23;2.57;74.33
82788;DHT22;72529;51.786;4.662;2024-01-11T12:35:50;2.59;74.45
82788;DHT22;72529;51.786;4.662;2024-01-11T12:38:15;2.57;74.47
82788;DHT22;72529;51.786;4.662;2024-01-11T12:40:41;2.59;74.63
82788;DHT22;72529;51.786;4.662;2024-01-11T12:43:07;2.64;74.54
82788;DHT22;72529;51.786;4.662;2024-01-11T12:45:34;2.79;74.33
82788;DHT22;72529;51.786;4.662;2024-01-11T12:48:00;2.83;74.20
82788;DHT22;72529;51.786;4.662;2024-01-11T12:50:28;3.05;73.72
82788;DHT22;72529;51.786;4.662;2024-01-11T12:53:12;3.07;73.48
82788;DHT22;72529;51.786;4.662;2024-01-11T12:55:47;3.05;73.66
82788;DHT22;72529;51.786;4.662;2024-01-11T12:58:13;3.23;73.00
82788;DHT22;72529;51.786;4.662;2024-01-11T13:00:39;3.07;73.44
82788;DHT22;72529;51.786;4.662;2024-01-11T13:03:05;3.07;73.85
82788;DHT22;72529;51.786;4.662;2024-01-11T13:05:31;3.04;73.80
82788;DHT22;72529;51.786;4.662;2024-01-11T13:08:01;3.17;73.78
82788;DHT22;72529;51.786;4.662;2024-01-11T13:10:27;3.15;73.66
82788;DHT22;72529;51.786;4.662;2024-01-11T13:12:54;3.28;73.73
82788;DHT22;72529;51.786;4.662;2024-01-11T13:15:20;3.31;73.37
82788;DHT22;72529;51.786;4.662;2024-01-11T13:17:45;3.41;73.30
82788;DHT22;72529;51.786;4.662;2024-01-11T13:20:11;3.38;73.17
82788;DHT22;72529;51.786;4.662;2024-01-11T13:22:36;3.27;73.77
82788;DHT22;72529;51.786;4.662;2024-01-11T13:25:02;3.38;73.77
82788;DHT22;72529;51.786;4.662;2024-01-11T13:27:27;3.39;73.60
82788;DHT22;72529;51.786;4.662;2024-01-11T13:29:53;3.41;73.58
82788;DHT22;72529;51.786;4.662;2024-01-11T13:32:18;3.42;73.71
82788;DHT22;72529;51.786;4.662;2024-01-11T13:34:43;3.30;73.63
82788;DHT22;72529;51.786;4.662;2024-01-11T13:37:11;3.31;73.83
82788;DHT22;72529;51.786;4.662;2024-01-11T13:39:36;3.27;74.19
82788;DHT22;72529;51.786;4.662;2024-01-11T13:42:02;3.27;74.25
82788;DHT22;72529;51.786;4.662;2024-01-11T13:44:28;3.30;74.05
82788;DHT22;72529;51.786;4.662;2024-01-11T13:46:54;3.50;73.49
82788;DHT22;72529;51.786;4.662;2024-01-11T13:49:20;3.47;73.38
82788;DHT22;72529;51.786;4.662;2024-01-11T13:51:47;3.38;73.66
82788;DHT22;72529;51.786;4.662;2024-01-11T13:54:13;3.42;73.55
82788;DHT22;72529;51.786;4.662;2024-01-11T13:56:38;3.34;73.56
82788;DHT22;72529;51.786;4.662;2024-01-11T13:59:03;3.39;73.93
82788;DHT22;72529;51.786;4.662;2024-01-11T14:01:29;3.42;73.91
82788;DHT22;72529;51.786;4.662;2024-01-11T14:03:55;3.41;73.97
82788;DHT22;72529;51.786;4.662;2024-01-11T14:06:20;3.44;73.74
82788;DHT22;72529;51.786;4.662;2024-01-11T14:08:46;3.38;74.14
82788;DHT22;72529;51.786;4.662;2024-01-11T14:11:12;3.47;73.89
82788;DHT22;72529;51.786;4.662;2024-01-11T14:13:37;3.48;73.59
82788;DHT22;72529;51.786;4.662;2024-01-11T14:16:03;3.50;73.42
82788;DHT22;72529;51.786;4.662;2024-01-11T14:18:29;3.50;73.49
82788;DHT22;72529;51.786;4.662;2024-01-11T14:20:54;3.58;73.43
82788;DHT22;72529;51.786;4.662;2024-01-11T14:23:20;3.54;73.44
82788;DHT22;72529;51.786;4.662;2024-01-11T14:25:45;3.52;73.55
82788;DHT22;72529;51.786;4.662;2024-01-11T14:28:10;3.48;73.85
82788;DHT22;72529;51.786;4.662;2024-01-11T14:30:36;3.55;73.74
82788;DHT22;72529;51.786;4.662;2024-01-11T14:33:01;3.58;73.50
82788;DHT22;72529;51.786;4.662;2024-01-11T14:35:27;3.58;73.34
82788;DHT22;72529;51.786;4.662;2024-01-11T14:37:52;3.47;73.63
82788;DHT22;72529;51.786;4.662;2024-01-11T14:40:18;3.42;73.99
82788;DHT22;72529;51.786;4.662;2024-01-11T14:42:43;3.50;73.88
82788;DHT22;72529;51.786;4.662;2024-01-11T14:45:09;3.48;73.78
82788;DHT22;72529;51.786;4.662;2024-01-11T14:47:35;3.44;73.78
82788;DHT22;72529;51.786;4.662;2024-01-11T14:50:00;3.48;73.71
82788;DHT22;72529;51.786;4.662;2024-01-11T14:52:28;3.48;73.64
82788;DHT22;72529;51.786;4.662;2024-01-11T14:54:54;3.35;74.14
82788;DHT22;72529;51.786;4.662;2024-01-11T14:57:19;3.41;74.28
82788;DHT22;72529;51.786;4.662;2024-01-11T14:59:46;3.38;74.30
82788;DHT22;72529;51.786;4.662;2024-01-11T15:02:12;3.37;74.31
82788;DHT22;72529;51.786;4.662;2024-01-11T15:04:38;3.31;74.70
82788;DHT22;72529;51.786;4.662;2024-01-11T15:07:04;3.32;74.54
82788;DHT22;72529;51.786;4.662;2024-01-11T15:09:30;3.37;74.42
82788;DHT22;72529;51.786;4.662;2024-01-11T15:11:55;3.30;74.61
82788;DHT22;72529;51.786;4.662;2024-01-11T15:14:21;3.32;74.52
82788;DHT22;72529;51.786;4.662;2024-01-11T15:16:49;3.32;74.62
82788;DHT22;72529;51.786;4.662;2024-01-11T15:19:15;3.34;74.90
82788;DHT22;72529;51.786;4.662;2024-01-11T15:21:40;3.27;75.20
82788;DHT22;72529;51.786;4.662;2024-01-11T15:24:07;3.27;75.36
82788;DHT22;72529;51.786;4.662;2024-01-11T15:26:33;3.28;75.36
82788;DHT22;72529;51.786;4.662;2024-01-11T15:28:59;3.39;75.14
82788;DHT22;72529;51.786;4.662;2024-01-11T15:31:24;3.44;74.92